createdAt,value
2022-08-22T00:00:38.678Z,52.76
2022-08-22T00:02:58.997Z,51.31
2022-08-22T00:03:12.013Z,47.32
2022-08-22T00:03:16.333Z,50.24
2022-08-22T00:03:30.101Z,52.97
2022-08-22T00:06:07.457Z,53.15
2022-08-22T00:08:44.309Z,53.25
2022-08-22T00:11:19.193Z,53.23
2022-08-22T00:14:01.584Z,53.34
2022-08-22T00:16:39.561Z,53.46
2022-08-22T00:19:31.090Z,53.60
2022-08-22T00:22:06.399Z,53.67
2022-08-22T00:24:40.999Z,53.75
2022-08-22T00:27:16.102Z,53.85
2022-08-22T00:29:50.010Z,53.92
2022-08-22T00:32:24.894Z,53.98
2022-08-22T00:35:00.015Z,54.07
2022-08-22T00:37:34.037Z,54.22
2022-08-22T00:40:15.517Z,54.00
2022-08-22T00:43:04.409Z,54.33
2022-08-22T00:46:02.634Z,54.41
2022-08-22T00:49:04.236Z,54.62
2022-08-22T00:52:05.724Z,54.68
2022-08-22T00:55:00.578Z,54.65
2022-08-22T00:57:51.981Z,54.85
2022-08-22T01:00:23.504Z,54.94
2022-08-22T01:03:26.743Z,54.89
2022-08-22T01:06:04.271Z,55.29
2022-08-22T01:08:46.677Z,55.18
2022-08-22T01:11:36.448Z,55.45
2022-08-22T01:14:35.025Z,55.44
2022-08-22T01:17:36.636Z,55.65
2022-08-22T01:20:43.907Z,55.69
2022-08-22T01:23:49.026Z,55.66
2022-08-22T01:27:01.059Z,55.85
2022-08-22T01:29:59.012Z,56.03
2022-08-22T01:33:11.157Z,55.89
2022-08-22T01:35:58.929Z,56.12
2022-08-22T01:38:54.618Z,56.39
2022-08-22T01:41:47.563Z,56.53
2022-08-22T01:44:32.211Z,56.26
2022-08-22T01:47:07.069Z,56.69
2022-08-22T01:49:44.089Z,56.64
2022-08-22T01:52:19.988Z,56.80
2022-08-22T01:54:57.716Z,56.72
2022-08-22T01:57:27.063Z,56.96
2022-08-22T01:59:58.763Z,56.96
2022-08-22T02:02:44.850Z,56.98
2022-08-22T02:05:27.011Z,57.06
2022-08-22T02:08:03.090Z,57.46
2022-08-22T02:10:50.046Z,57.25
2022-08-22T02:13:41.939Z,57.35
2022-08-22T02:16:14.753Z,57.70
2022-08-22T02:18:57.148Z,57.57
2022-08-22T02:21:33.519Z,57.88
2022-08-22T02:24:15.653Z,58.05
2022-08-22T02:26:51.238Z,57.88
2022-08-22T02:29:30.476Z,58.17
2022-08-22T02:32:04.117Z,57.99
2022-08-22T02:34:39.775Z,58.44
2022-08-22T02:37:15.120Z,58.42
2022-08-22T02:39:50.231Z,58.26
2022-08-22T02:42:25.874Z,58.46
2022-08-22T02:45:13.394Z,58.63
2022-08-22T02:47:51.202Z,58.76
2022-08-22T02:50:27.370Z,58.61
2022-08-22T02:53:01.316Z,58.59
2022-08-22T02:55:39.912Z,58.58
2022-08-22T02:58:16.955Z,59.08
2022-08-22T03:00:51.335Z,59.15
2022-08-22T03:03:26.328Z,58.94
2022-08-22T03:06:01.672Z,59.28
2022-08-22T03:08:32.788Z,59.17
2022-08-22T03:11:22.034Z,59.54
2022-08-22T03:14:03.405Z,59.44
2022-08-22T03:16:37.347Z,59.30
2022-08-22T03:19:13.212Z,60.04
2022-08-22T03:21:55.487Z,59.98
2022-08-22T03:24:34.378Z,59.65
2022-08-22T03:27:08.915Z,60.14
2022-08-22T03:29:39.459Z,60.08
2022-08-22T03:32:17.377Z,60.21
2022-08-22T03:35:00.284Z,60.39
2022-08-22T03:37:40.467Z,60.32
2022-08-22T03:40:23.623Z,60.16
2022-08-22T03:43:34.710Z,60.54
2022-08-22T03:46:23.499Z,60.44
2022-08-22T03:49:34.319Z,60.40
2022-08-22T03:52:25.427Z,60.92
2022-08-22T03:55:21.929Z,60.91
2022-08-22T03:58:19.205Z,61.09
2022-08-22T04:01:20.631Z,60.94
2022-08-22T04:04:14.657Z,60.89
2022-08-22T04:07:32.239Z,61.19
2022-08-22T04:10:20.727Z,61.41
2022-08-22T04:13:06.906Z,61.16
2022-08-22T04:15:59.859Z,61.50
2022-08-22T04:18:48.669Z,61.49
2022-08-22T04:21:39.749Z,61.38
2022-08-22T04:24:31.766Z,61.90
2022-08-22T04:27:06.984Z,61.60
2022-08-22T04:29:41.759Z,61.72
2022-08-22T04:32:16.069Z,61.79
2022-08-22T04:34:49.891Z,62.37
2022-08-22T04:37:24.684Z,62.17
2022-08-22T04:39:56.818Z,62.39
2022-08-22T04:42:33.608Z,62.33
2022-08-22T04:45:08.319Z,62.57
2022-08-22T04:47:40.033Z,62.53
2022-08-22T04:50:17.378Z,62.36
2022-08-22T04:53:14.956Z,62.79
2022-08-22T04:55:52.850Z,62.70
2022-08-22T04:58:36.687Z,62.46
2022-08-22T05:01:12.440Z,62.87
2022-08-22T05:03:46.715Z,62.78
2022-08-22T05:06:19.760Z,62.76
2022-08-22T05:08:54.063Z,63.44
2022-08-22T05:11:25.048Z,63.10
2022-08-22T05:13:56.862Z,63.42
2022-08-22T05:16:29.390Z,63.78
2022-08-22T05:19:03.207Z,63.49
2022-08-22T05:21:36.074Z,63.29
2022-08-22T05:24:06.649Z,63.68
2022-08-22T05:26:42.203Z,63.63
2022-08-22T05:29:13.471Z,64.04
2022-08-22T05:31:51.021Z,63.92
2022-08-22T05:34:23.316Z,63.95
2022-08-22T05:36:57.390Z,64.06
2022-08-22T05:39:28.242Z,64.00
2022-08-22T05:41:58.139Z,64.11
2022-08-22T05:44:29.014Z,64.50
2022-08-22T05:47:02.668Z,64.39
2022-08-22T05:49:38.852Z,64.37
2022-08-22T05:52:15.908Z,64.73
2022-08-22T05:54:53.571Z,65.10
2022-08-22T05:57:31.268Z,64.72
2022-08-22T06:00:04.846Z,64.71
2022-08-22T06:02:52.583Z,65.05
2022-08-22T06:05:26.594Z,65.17
2022-08-22T06:08:02.223Z,65.25
2022-08-22T06:10:41.377Z,65.37
2022-08-22T06:13:24.335Z,65.12
2022-08-22T06:16:03.988Z,65.45
2022-08-22T06:18:33.734Z,65.42
2022-08-22T06:21:04.317Z,65.69
2022-08-22T06:23:39.912Z,65.66
2022-08-22T06:26:20.471Z,65.70
2022-08-22T06:28:55.076Z,65.80
2022-08-22T06:31:27.723Z,66.01
2022-08-22T06:34:01.112Z,65.73
2022-08-22T06:36:34.017Z,65.78
2022-08-22T06:39:16.143Z,66.13
2022-08-22T06:41:49.761Z,66.01
2022-08-22T06:44:24.550Z,66.33
2022-08-22T06:46:56.343Z,66.44
2022-08-22T06:49:27.614Z,66.35
2022-08-22T06:52:01.038Z,66.34
2022-08-22T06:54:36.186Z,66.58
2022-08-22T06:57:06.550Z,66.50
2022-08-22T06:59:39.283Z,66.56
2022-08-22T07:02:18.864Z,66.51
2022-08-22T07:04:49.722Z,66.66
2022-08-22T07:07:19.904Z,66.88
2022-08-22T07:09:55.388Z,66.87
2022-08-22T07:12:27.205Z,66.92
2022-08-22T07:15:01.183Z,66.84
2022-08-22T07:17:32.427Z,66.96
2022-08-22T07:20:12.441Z,66.95
2022-08-22T07:22:40.374Z,67.06
2022-08-22T07:25:13.797Z,67.03
2022-08-22T07:27:50.596Z,67.01
2022-08-22T07:30:27.503Z,67.05
2022-08-22T07:33:25.880Z,67.09
2022-08-22T07:35:56.808Z,67.18
2022-08-22T07:38:34.804Z,67.33
2022-08-22T07:41:14.523Z,67.29
2022-08-22T07:43:51.668Z,67.28
2022-08-22T07:46:29.745Z,67.17
2022-08-22T07:49:09.835Z,67.26
2022-08-22T07:51:44.501Z,67.14
2022-08-22T07:54:15.779Z,67.05
2022-08-22T07:56:53.682Z,67.38
2022-08-22T07:59:23.071Z,67.13
2022-08-22T08:01:55.041Z,67.24
2022-08-22T08:04:26.986Z,67.29
2022-08-22T08:06:58.449Z,67.30
2022-08-22T08:09:31.313Z,67.29
2022-08-22T08:12:02.960Z,67.08
2022-08-22T08:14:31.948Z,67.28
2022-08-22T08:17:05.896Z,67.10
2022-08-22T08:19:36.531Z,67.07
2022-08-22T08:22:05.983Z,67.12
2022-08-22T08:24:43.392Z,67.19
2022-08-22T08:27:35.714Z,67.02
2022-08-22T08:30:07.131Z,67.13
2022-08-22T08:32:40.319Z,67.06
2022-08-22T08:35:11.783Z,67.04
2022-08-22T08:37:47.285Z,66.87
2022-08-22T08:40:39.008Z,66.99
2022-08-22T08:43:29.829Z,66.82
2022-08-22T08:46:33.014Z,66.81
2022-08-22T08:49:42.115Z,66.69
2022-08-22T08:52:30.115Z,66.68
2022-08-22T08:55:19.689Z,66.73
2022-08-22T08:58:07.126Z,66.66
2022-08-22T09:00:52.318Z,66.40
2022-08-22T09:03:44.413Z,66.62
2022-08-22T09:06:52.768Z,66.39
2022-08-22T09:09:44.430Z,66.34
2022-08-22T09:12:37.146Z,66.28
2022-08-22T09:15:37.517Z,66.15
2022-08-22T09:18:42.168Z,66.10
2022-08-22T09:21:31.366Z,65.86
2022-08-22T09:24:25.859Z,65.71
2022-08-22T09:26:57.193Z,65.67
2022-08-22T09:29:55.135Z,65.94
2022-08-22T09:32:44.085Z,65.52
2022-08-22T09:35:24.609Z,65.44
2022-08-22T09:38:10.621Z,65.51
2022-08-22T09:40:44.314Z,65.34
2022-08-22T09:43:21.134Z,64.98
2022-08-22T09:46:02.112Z,65.25
2022-08-22T09:48:59.038Z,65.03
2022-08-22T09:51:39.643Z,64.87
2022-08-22T09:54:32.833Z,64.64
2022-08-22T09:57:27.698Z,64.49
2022-08-22T10:00:14.524Z,64.55
2022-08-22T10:02:52.927Z,64.30
2022-08-22T10:05:40.336Z,64.02
2022-08-22T10:08:41.263Z,64.03
2022-08-22T10:11:23.772Z,63.91
2022-08-22T10:14:01.594Z,63.75
2022-08-22T10:16:46.739Z,63.64
2022-08-22T10:19:22.927Z,63.46
2022-08-22T10:22:20.367Z,63.15
2022-08-22T10:25:02.888Z,63.13
2022-08-22T10:27:47.977Z,62.92
2022-08-22T10:30:20.216Z,62.80
2022-08-22T10:32:59.134Z,62.52
2022-08-22T10:35:33.681Z,62.49
2022-08-22T10:38:07.409Z,62.43
2022-08-22T10:40:48.324Z,62.30
2022-08-22T10:43:29.130Z,61.68
2022-08-22T10:46:04.110Z,61.55
2022-08-22T10:48:47.299Z,61.41
2022-08-22T10:51:25.367Z,61.58
2022-08-22T10:54:20.019Z,61.40
2022-08-22T10:56:56.581Z,60.91
2022-08-22T10:59:43.944Z,60.84
2022-08-22T11:02:36.144Z,60.39
2022-08-22T11:05:23.747Z,60.38
2022-08-22T11:08:06.325Z,60.51
2022-08-22T11:10:47.757Z,59.99
2022-08-22T11:13:26.452Z,59.61
2022-08-22T11:16:04.346Z,59.80
2022-08-22T11:19:01.884Z,59.60
2022-08-22T11:21:45.897Z,59.23
2022-08-22T11:24:56.358Z,58.97
2022-08-22T11:27:39.664Z,59.05
2022-08-22T11:30:18.210Z,59.05
2022-08-22T11:33:05.443Z,58.27
2022-08-22T11:35:40.826Z,58.62
2022-08-22T11:38:21.212Z,58.23
2022-08-22T11:41:00.388Z,58.01
2022-08-22T11:43:48.349Z,57.78
2022-08-22T11:46:22.800Z,57.82
2022-08-22T11:49:18.838Z,57.80
2022-08-22T11:52:21.366Z,57.76
2022-08-22T11:55:32.649Z,57.53
2022-08-22T11:58:20.204Z,56.89
2022-08-22T12:00:56.445Z,56.98
2022-08-22T12:03:38.831Z,56.89
2022-08-22T12:06:16.010Z,56.57
2022-08-22T12:09:24.263Z,56.58
2022-08-22T12:12:09.752Z,56.65
2022-08-22T12:14:46.233Z,56.00
2022-08-22T12:17:50.634Z,55.80
2022-08-22T12:20:34.121Z,55.52
2022-08-22T12:23:43.526Z,55.55
2022-08-22T12:26:25.914Z,55.50
2022-08-22T12:29:15.556Z,55.29
2022-08-22T12:32:22.804Z,54.89
2022-08-22T12:35:14.107Z,54.75
2022-08-22T12:37:53.636Z,54.98
2022-08-22T12:40:33.344Z,54.71
2022-08-22T12:43:21.767Z,54.28
2022-08-22T12:46:13.384Z,54.52
2022-08-22T12:48:55.979Z,53.95
2022-08-22T12:51:31.751Z,53.80
2022-08-22T12:54:30.099Z,53.83
2022-08-22T12:57:10.464Z,53.87
2022-08-22T12:59:58.182Z,53.15
2022-08-22T13:02:29.082Z,53.23
2022-08-22T13:05:04.183Z,52.85
2022-08-22T13:07:35.950Z,53.07
2022-08-22T13:10:35.346Z,53.17
2022-08-22T13:13:12.094Z,52.79
2022-08-22T13:15:46.836Z,52.63
2022-08-22T13:18:29.805Z,52.34
2022-08-22T13:21:02.011Z,52.18
2022-08-22T13:23:34.321Z,52.29
2022-08-22T13:26:32.001Z,52.00
2022-08-22T13:29:25.212Z,51.59
2022-08-22T13:31:59.169Z,51.38
2022-08-22T13:34:39.971Z,51.52
2022-08-22T13:37:12.780Z,51.48
2022-08-22T13:39:46.969Z,51.04
2022-08-22T13:42:30.118Z,50.91
2022-08-22T13:45:05.062Z,51.00
2022-08-22T13:47:39.493Z,50.98
2022-08-22T13:50:13.966Z,50.80
2022-08-22T13:52:49.272Z,50.42
2022-08-22T13:55:29.592Z,50.52
2022-08-22T13:58:06.854Z,50.39
2022-08-22T14:01:05.857Z,50.01
2022-08-22T14:03:45.409Z,49.83
2022-08-22T14:06:37.228Z,49.63
2022-08-22T14:09:17.341Z,49.42
2022-08-22T14:12:00.595Z,49.20
2022-08-22T14:14:34.801Z,49.13
2022-08-22T14:17:06.187Z,48.96
2022-08-22T14:19:58.591Z,48.96
2022-08-22T14:22:31.893Z,49.07
2022-08-22T14:27:07.096Z,48.64
2022-08-22T14:29:43.233Z,48.15
2022-08-22T14:32:35.094Z,48.03
2022-08-22T14:35:21.615Z,47.72
2022-08-22T14:37:59.712Z,47.96
2022-08-22T14:40:31.497Z,47.20
2022-08-22T14:43:06.634Z,47.31
2022-08-22T14:45:38.985Z,47.13
2022-08-22T14:48:30.941Z,47.34
2022-08-22T14:51:03.859Z,46.75
2022-08-22T14:53:35.518Z,46.34
2022-08-22T14:56:10.864Z,46.57
2022-08-22T14:58:51.792Z,46.22
2022-08-22T15:01:22.993Z,46.43
2022-08-22T15:04:02.482Z,46.27
2022-08-22T15:06:35.099Z,45.72
2022-08-22T15:09:07.953Z,45.98
2022-08-22T15:11:37.578Z,45.68
2022-08-22T15:14:21.891Z,45.63
2022-08-22T15:16:54.646Z,44.98
2022-08-22T15:19:28.332Z,45.32
2022-08-22T15:22:11.331Z,44.66
2022-08-22T15:24:44.622Z,44.92
2022-08-22T15:27:13.103Z,44.43
2022-08-22T15:29:52.881Z,44.54
2022-08-22T15:32:23.316Z,44.00
2022-08-22T15:35:03.736Z,43.99
2022-08-22T15:37:34.974Z,44.24
2022-08-22T15:40:11.938Z,43.94
2022-08-22T15:42:43.522Z,43.34
2022-08-22T15:45:23.216Z,43.67
2022-08-22T15:47:53.666Z,43.31
2022-08-22T15:50:34.822Z,43.48
2022-08-22T15:53:13.203Z,43.12
2022-08-22T15:56:27.973Z,43.18
2022-08-22T15:59:47.769Z,42.67
2022-08-22T16:02:35.460Z,42.66
2022-08-22T16:05:21.667Z,42.39
2022-08-22T16:07:52.196Z,42.13
2022-08-22T16:10:32.927Z,42.45
2022-08-22T16:13:17.834Z,41.98
2022-08-22T16:15:59.946Z,42.00
2022-08-22T16:19:05.265Z,41.89
2022-08-22T16:22:10.736Z,41.68
2022-08-22T16:25:12.233Z,41.39
2022-08-22T16:27:58.592Z,41.56
2022-08-22T16:30:37.547Z,41.50
2022-08-22T16:33:07.025Z,40.90
2022-08-22T16:36:22.276Z,41.29
2022-08-22T16:38:54.723Z,40.99
2022-08-22T16:41:31.538Z,41.03
2022-08-22T16:44:24.049Z,40.70
2022-08-22T16:46:54.917Z,40.48
2022-08-22T16:49:30.496Z,40.71
2022-08-22T16:52:35.776Z,40.30
2022-08-22T16:55:07.680Z,40.49
2022-08-22T16:58:05.059Z,40.12
2022-08-22T17:00:43.611Z,40.12
2022-08-22T17:03:21.350Z,40.13
2022-08-22T17:06:02.787Z,40.07
2022-08-22T17:08:46.733Z,39.98
2022-08-22T17:11:31.081Z,39.88
2022-08-22T17:14:17.454Z,40.32
2022-08-22T17:16:56.964Z,39.87
2022-08-22T17:19:42.357Z,40.20
2022-08-22T17:22:17.743Z,40.17
2022-08-22T17:24:48.148Z,40.04
2022-08-22T17:27:24.877Z,39.68
2022-08-22T17:30:02.108Z,39.48
2022-08-22T17:32:38.553Z,39.77
2022-08-22T17:35:18.010Z,39.84
2022-08-22T17:38:03.187Z,39.82
2022-08-22T17:40:42.872Z,39.50
2022-08-22T17:43:33.439Z,39.22
2022-08-22T17:46:25.815Z,39.50
2022-08-22T17:49:00.935Z,39.22
2022-08-22T17:51:34.985Z,39.46
2022-08-22T17:54:13.495Z,39.42
2022-08-22T17:56:47.231Z,39.08
2022-08-22T17:59:30.143Z,39.27
2022-08-22T18:02:02.487Z,39.10
2022-08-22T18:04:39.291Z,39.32
2022-08-22T18:07:32.721Z,39.20
2022-08-22T18:10:07.415Z,39.00
2022-08-22T18:12:44.670Z,39.29
2022-08-22T18:15:23.433Z,39.24
2022-08-22T18:17:57.253Z,39.19
2022-08-22T18:20:31.344Z,39.16
2022-08-22T18:23:04.865Z,39.18
2022-08-22T18:26:04.154Z,39.17
2022-08-22T18:28:41.864Z,39.28
2022-08-22T18:31:31.745Z,39.21
2022-08-22T18:34:07.517Z,39.35
2022-08-22T18:36:48.802Z,39.11
2022-08-22T18:39:26.385Z,39.21
2022-08-22T18:42:07.731Z,39.23
2022-08-22T18:44:39.766Z,39.20
2022-08-22T18:47:20.002Z,39.17
2022-08-22T18:49:54.421Z,39.38
2022-08-22T18:52:44.465Z,39.23
2022-08-22T18:55:46.124Z,39.31
2022-08-22T18:58:40.298Z,39.31
2022-08-22T19:01:36.286Z,39.14
2022-08-22T19:04:47.239Z,39.04
2022-08-22T19:07:31.888Z,39.42
2022-08-22T19:10:22.697Z,39.04
2022-08-22T19:13:15.406Z,39.23
2022-08-22T19:15:54.421Z,39.35
2022-08-22T19:18:37.266Z,39.57
2022-08-22T19:21:35.662Z,39.12
2022-08-22T19:24:13.311Z,39.11
2022-08-22T19:26:44.881Z,39.69
2022-08-22T19:29:50.092Z,39.64
2022-08-22T19:32:55.162Z,39.25
2022-08-22T19:35:27.017Z,39.21
2022-08-22T19:37:58.763Z,39.57
2022-08-22T19:40:53.426Z,39.35
2022-08-22T19:43:34.634Z,39.72
2022-08-22T19:46:06.098Z,39.83
2022-08-22T19:48:44.720Z,39.69
2022-08-22T19:51:24.974Z,39.53
2022-08-22T19:54:16.734Z,39.72
2022-08-22T19:57:10.501Z,39.93
2022-08-22T19:59:50.858Z,39.57
2022-08-22T20:02:31.969Z,39.90
2022-08-22T20:05:21.411Z,39.62
2022-08-22T20:08:04.613Z,39.55
2022-08-22T20:10:47.151Z,39.63
2022-08-22T20:13:22.119Z,40.15
2022-08-22T20:16:16.090Z,40.07
2022-08-22T20:19:13.488Z,39.67
2022-08-22T20:21:47.413Z,39.81
2022-08-22T20:24:21.617Z,39.90
2022-08-22T20:27:13.307Z,40.07
2022-08-22T20:29:49.341Z,39.92
2022-08-22T20:32:21.160Z,40.04
2022-08-22T20:34:55.137Z,40.29
2022-08-22T20:37:40.218Z,40.23
2022-08-22T20:40:30.792Z,40.38
2022-08-22T20:43:17.619Z,40.21
2022-08-22T20:45:58.666Z,40.13
2022-08-22T20:48:36.470Z,40.47
2022-08-22T20:51:06.433Z,40.46
2022-08-22T20:53:35.403Z,40.33
2022-08-22T20:56:07.049Z,40.53
2022-08-22T20:58:39.779Z,40.68
2022-08-22T21:01:11.373Z,40.71
2022-08-22T21:03:44.263Z,40.66
2022-08-22T21:06:14.796Z,40.44
2022-08-22T21:08:43.659Z,40.78
2022-08-22T21:11:39.029Z,40.66
2022-08-22T21:14:21.054Z,40.74
2022-08-22T21:16:49.629Z,40.68
2022-08-22T21:19:19.485Z,40.76
2022-08-22T21:21:47.550Z,40.78
2022-08-22T21:24:15.772Z,41.07
2022-08-22T21:26:50.196Z,40.88
2022-08-22T21:29:32.698Z,40.93
2022-08-22T21:32:24.500Z,41.17
2022-08-22T21:34:53.023Z,41.07
2022-08-22T21:37:26.554Z,41.11
2022-08-22T21:40:01.673Z,41.17
2022-08-22T21:42:33.975Z,41.25
2022-08-22T21:45:05.053Z,41.30
2022-08-22T21:47:36.779Z,41.11
2022-08-22T21:50:27.292Z,41.16
2022-08-22T21:53:04.519Z,41.37
2022-08-22T21:55:34.549Z,41.59
2022-08-22T21:58:35.705Z,41.35
2022-08-22T22:01:30.497Z,41.41
2022-08-22T22:06:35.778Z,41.67
2022-08-22T22:09:03.693Z,41.72
2022-08-22T22:11:31.651Z,41.74
2022-08-22T22:14:00.074Z,42.06
2022-08-22T22:16:29.649Z,41.88
2022-08-22T22:18:57.888Z,41.92
2022-08-22T22:21:25.832Z,42.05
2022-08-22T22:23:56.401Z,41.96
2022-08-22T22:26:27.077Z,42.04
2022-08-22T22:28:55.000Z,42.28
2022-08-22T22:31:22.800Z,42.13
2022-08-22T22:33:50.674Z,42.28
2022-08-22T22:36:22.768Z,42.37
2022-08-22T22:38:51.957Z,42.35
2022-08-22T22:41:25.255Z,42.57
2022-08-22T22:43:53.749Z,42.50
2022-08-22T22:46:22.350Z,42.58
2022-08-22T22:48:50.370Z,42.58
2022-08-22T22:51:18.265Z,42.64
2022-08-22T22:53:48.152Z,42.75
2022-08-22T22:56:21.260Z,42.69
2022-08-22T22:58:59.278Z,42.72
2022-08-22T23:01:29.408Z,42.79
2022-08-22T23:04:01.189Z,43.09
2022-08-22T23:06:34.303Z,43.10
2022-08-22T23:09:02.151Z,43.06
2022-08-22T23:11:31.425Z,43.11
2022-08-22T23:14:03.364Z,43.21
2022-08-22T23:16:36.619Z,43.23
2022-08-22T23:19:09.071Z,43.29
2022-08-22T23:21:37.076Z,43.43
2022-08-22T23:24:05.900Z,43.41
2022-08-22T23:26:33.888Z,43.42
2022-08-22T23:29:06.321Z,43.60
2022-08-22T23:31:36.988Z,43.63
2022-08-22T23:34:06.981Z,43.76
2022-08-22T23:36:36.139Z,43.80
2022-08-22T23:39:05.299Z,43.81
2022-08-22T23:41:33.336Z,43.52
2022-08-22T23:44:01.285Z,44.00
2022-08-22T23:46:31.275Z,44.04
2022-08-22T23:48:59.706Z,44.12
2022-08-22T23:51:28.961Z,44.00
2022-08-22T23:53:58.741Z,44.23
2022-08-22T23:56:29.327Z,44.33
2022-08-22T23:58:58.167Z,44.37
